Greenville Downtown Airport
KGMU : now visible

Airfield :











YOU CAN JOIN US ON...

 
LOGIN :

Register | Disclaimer

   EN    FR    IT 

 









Legend :    VFR   Marginal VFR   IFR   Intensive IFR   Very Intensive IFR
Visi :
Ceiling :
>= 8 km
>= 3000ft
5 to 8 km
1000 to 3000 ft
1500m to 5 km
500 to 1000 ft
800 to 1500m
200 to 500 ft
< 800m
< 200 ft
Symbols :   Thunderstorms  Fog  Heavy snow  Heavy precipitations  Wind > 20 kt






- Airport Elevation : 1048 ft


KGMU - Greenville Downtown

CURRENT METAR :
  • 200853Z AUTO 04012KT 10SM BKN022 OVC029 14/13 A2973 RMK AO2 SLP063 60002 T01440128 55009

EXPIRED METARs :
  • 200827Z AUTO 03016G22KT 10SM FEW008 BKN026 OVC032 14/13 A2971 RMK AO2 T01390128
  • 200753Z AUTO 03016KT 9SM OVC024 13/13 A2970 RMK AO2 PK WND 03026/0711 RAE45 SLP056 P0000 T01330128
  • 200714Z AUTO 03017G26KT 7SM -RA FEW007 BKN022 OVC030 13/12 A2973 RMK AO2 PK WND 03026/0711 P0000 T01330122
  • 200653Z AUTO 02018G24KT 10SM -RA FEW007 OVC031 13/12 A2974 RMK AO2 RAB0558 SLP067 P0002 T01280122

TAF KGMU
Valid from the 20 at 06:00 until the 21 at 06:00 UTC


200533Z 2006/2106 03015G26KT 4SM -SHRA BR SCT007 OVC025
FM200900 02012KT 4SM BR VCSH OVC007
FM201300 01006KT P6SM SCT007
FM201800 33004KT P6SM SCT100
FM210500 08003KT P6SM SCT040



MET'MAP, your aeronautical weather chart ! - Copyright ORBIFLY December 2007 - Disclaimer

ORBIFLY MET'MAP TEAM :

Programming & Development : Alexandra Zaïnal
Concept & Development : Baudouin d'Aumeries
Co-Development & Prog : Marc-Olivier Méhu
Technical & hardware support : Manuel Goepfert

Contact : metmap@orbifly.com




SOURCES & CREDITS :

   NOAA       Earth
Advisory